createdAt,value
2018-09-07T00:04:24.802Z,99768.00
2018-09-07T00:09:28.139Z,99775.00
2018-09-07T00:14:31.258Z,99766.00
2018-09-07T00:19:34.859Z,99766.00
2018-09-07T00:24:38.127Z,99771.00
2018-09-07T00:29:41.207Z,99780.00
2018-09-07T00:34:44.519Z,99790.00
2018-09-07T00:39:47.695Z,99785.00
2018-09-07T00:44:50.802Z,99786.00
2018-09-07T00:49:54.260Z,99778.00
2018-09-07T00:54:57.539Z,99785.00
2018-09-07T01:00:03.263Z,99800.00
2018-09-07T01:05:06.344Z,99793.00
2018-09-07T01:10:10.498Z,99809.00
2018-09-07T01:15:13.891Z,99794.00
2018-09-07T01:20:17.502Z,99799.00
2018-09-07T01:25:20.967Z,99800.00
2018-09-07T01:30:24.056Z,99804.00
2018-09-07T01:35:28.756Z,99803.00
2018-09-07T01:40:31.842Z,99800.00
2018-09-07T01:45:36.090Z,99803.00
2018-09-07T01:50:39.235Z,99810.00
2018-09-07T01:55:42.581Z,99818.00
2018-09-07T02:00:45.667Z,99808.00
2018-09-07T02:05:49.007Z,99806.00
2018-09-07T02:10:54.283Z,99801.00
2018-09-07T02:15:57.671Z,99804.00
2018-09-07T02:21:04.173Z,99802.00
2018-09-07T02:26:07.340Z,99804.00
2018-09-07T02:31:10.471Z,99804.00
2018-09-07T02:36:13.809Z,99805.00
2018-09-07T02:41:16.897Z,99811.00
2018-09-07T02:46:20.275Z,99805.00
2018-09-07T02:51:23.556Z,99795.00
2018-09-07T02:56:26.672Z,99787.00
2018-09-07T03:01:29.762Z,99798.00
2018-09-07T03:06:32.879Z,99800.00
2018-09-07T03:11:36.114Z,99791.00
2018-09-07T03:16:39.619Z,99802.00
2018-09-07T03:21:42.821Z,99809.00
2018-09-07T03:26:46.116Z,99800.00
2018-09-07T03:31:49.204Z,99796.00
2018-09-07T03:36:52.557Z,99804.00
2018-09-07T03:41:55.610Z,99805.00
2018-09-07T03:46:58.744Z,99804.00
2018-09-07T03:52:04.459Z,99805.00
2018-09-07T03:57:07.555Z,99817.00
2018-09-07T04:02:10.675Z,99829.00
2018-09-07T04:07:13.747Z,99829.00
2018-09-07T04:12:17.042Z,99838.00
2018-09-07T04:17:20.176Z,99847.00
2018-09-07T04:22:23.573Z,99847.00
2018-09-07T04:27:26.647Z,99851.00
2018-09-07T04:32:29.942Z,99853.00
2018-09-07T04:37:33.070Z,99861.00
2018-09-07T04:42:36.285Z,99864.00
2018-09-07T04:47:39.404Z,99869.00
2018-09-07T04:52:42.433Z,99859.00
2018-09-07T04:57:45.605Z,99864.00
2018-09-07T05:02:48.668Z,99878.00
2018-09-07T05:07:52.133Z,99878.00
2018-09-07T05:12:55.155Z,99886.00
2018-09-07T05:17:58.424Z,99889.00
2018-09-07T05:23:02.873Z,99895.00
2018-09-07T05:28:06.897Z,99882.00
2018-09-07T05:33:09.942Z,99885.00
2018-09-07T05:38:12.922Z,99889.00
2018-09-07T05:43:16.128Z,99890.00
2018-09-07T05:48:19.920Z,99896.00
2018-09-07T05:53:23.057Z,99906.00
2018-09-07T05:58:26.096Z,99902.00
2018-09-07T06:03:29.142Z,99892.00
2018-09-07T06:08:32.222Z,99902.00
2018-09-07T06:13:35.358Z,99899.00
2018-09-07T06:18:38.463Z,99921.00
2018-09-07T06:23:41.723Z,99924.00
2018-09-07T06:28:44.720Z,99921.00
2018-09-07T06:33:47.819Z,99913.00
2018-09-07T06:38:50.997Z,99921.00
2018-09-07T06:43:53.937Z,99931.00
2018-09-07T06:48:56.901Z,99942.00
2018-09-07T06:53:59.920Z,99943.00
2018-09-07T06:59:03.876Z,99942.00
2018-09-07T07:04:06.995Z,99952.00
2018-09-07T07:09:10.060Z,99958.00
2018-09-07T07:14:13.092Z,99950.00
2018-09-07T07:19:16.100Z,99958.00
2018-09-07T07:24:19.105Z,99965.00
2018-09-07T07:29:22.145Z,99989.00
2018-09-07T07:34:25.129Z,99979.00
2018-09-07T07:39:28.208Z,99970.00
2018-09-07T07:44:31.288Z,99995.00
2018-09-07T07:49:34.292Z,99994.00
2018-09-07T07:54:37.372Z,99994.00
2018-09-07T07:59:40.454Z,99988.00
2018-09-07T08:04:43.472Z,99991.00
2018-09-07T08:09:46.477Z,99996.00
2018-09-07T08:14:49.507Z,99989.00
2018-09-07T08:19:52.552Z,99993.00
2018-09-07T08:24:55.516Z,100010.00
2018-09-07T08:29:58.654Z,100022.00
2018-09-07T08:35:02.284Z,100015.00
2018-09-07T08:40:06.574Z,100025.00
2018-09-07T08:45:09.638Z,100002.00
2018-09-07T08:50:12.771Z,100003.00
2018-09-07T08:55:15.826Z,100008.00
2018-09-07T09:00:18.917Z,100006.00
2018-09-07T09:05:22.024Z,100019.00
2018-09-07T09:10:25.348Z,100013.00
2018-09-07T09:15:28.445Z,100006.00
2018-09-07T09:20:31.761Z,100002.00
2018-09-07T09:25:35.788Z,100003.00
2018-09-07T09:30:38.907Z,99999.00
2018-09-07T09:35:41.991Z,100003.00
2018-09-07T09:40:45.099Z,100007.00
2018-09-07T09:45:48.406Z,100002.00
2018-09-07T09:50:51.711Z,99995.00
2018-09-07T09:55:54.985Z,100002.00
2018-09-07T10:01:03.610Z,99985.00
2018-09-07T10:06:06.670Z,99976.00
2018-09-07T10:11:09.892Z,99978.00
2018-09-07T10:16:12.958Z,99987.00
2018-09-07T10:21:16.026Z,99979.00
2018-09-07T10:26:19.130Z,99977.00
2018-09-07T10:31:22.208Z,99987.00
2018-09-07T10:36:25.283Z,99996.00
2018-09-07T10:41:28.331Z,99996.00
2018-09-07T10:46:31.518Z,99990.00
2018-09-07T10:51:34.619Z,99995.00
2018-09-07T10:56:37.670Z,99989.00
2018-09-07T11:01:40.776Z,99996.00
2018-09-07T11:06:43.860Z,99998.00
2018-09-07T11:11:47.029Z,99997.00
2018-09-07T11:16:50.086Z,99989.00
2018-09-07T11:21:53.236Z,100001.00
2018-09-07T11:26:56.302Z,100000.00
2018-09-07T11:31:59.384Z,99997.00
2018-09-07T11:37:04.810Z,100000.00
2018-09-07T11:42:08.035Z,100009.00
2018-09-07T11:47:11.191Z,100008.00
2018-09-07T11:52:14.486Z,100012.00
2018-09-07T11:57:17.675Z,100024.00
2018-09-07T12:02:21.072Z,100020.00
2018-09-07T12:07:24.192Z,100029.00
2018-09-07T12:12:27.408Z,100026.00
2018-09-07T12:17:30.669Z,100038.00
2018-09-07T12:22:34.331Z,100036.00
2018-09-07T12:27:37.614Z,100037.00
2018-09-07T12:32:40.871Z,100031.00
2018-09-07T12:37:44.239Z,100030.00
2018-09-07T12:42:47.782Z,100041.00
2018-09-07T12:47:52.293Z,100040.00
2018-09-07T12:52:55.484Z,100051.00
2018-09-07T12:57:58.537Z,100041.00
2018-09-07T13:03:03.236Z,100054.00
2018-09-07T13:08:06.480Z,100043.00
2018-09-07T13:13:09.576Z,100049.00
2018-09-07T13:18:12.817Z,100045.00
2018-09-07T13:23:15.890Z,100052.00
2018-09-07T13:28:18.929Z,100044.00
2018-09-07T13:33:22.029Z,100062.00
2018-09-07T13:38:25.129Z,100068.00
2018-09-07T13:43:28.278Z,100076.00
2018-09-07T13:48:31.395Z,100080.00
2018-09-07T13:53:34.563Z,100064.00
2018-09-07T13:58:37.786Z,100079.00
2018-09-07T14:03:41.112Z,100083.00
2018-09-07T14:08:44.238Z,100080.00
2018-09-07T14:13:48.169Z,100081.00
2018-09-07T14:18:51.321Z,100079.00
2018-09-07T14:23:54.654Z,100086.00
2018-09-07T14:28:57.711Z,100098.00
2018-09-07T14:34:03.237Z,100098.00
2018-09-07T14:39:06.715Z,100089.00
2018-09-07T14:44:09.799Z,100096.00
2018-09-07T14:49:13.144Z,100094.00
2018-09-07T14:54:16.246Z,100082.00
2018-09-07T14:59:19.296Z,100092.00
2018-09-07T15:04:22.519Z,100084.00
2018-09-07T15:09:25.565Z,100092.00
2018-09-07T15:14:28.620Z,100092.00
2018-09-07T15:19:31.691Z,100100.00
2018-09-07T15:24:34.870Z,100116.00
2018-09-07T15:29:38.125Z,100114.00
2018-09-07T15:34:41.179Z,100118.00
2018-09-07T15:39:44.302Z,100123.00
2018-09-07T15:44:47.380Z,100119.00
2018-09-07T15:49:50.434Z,100127.00
2018-09-07T15:54:53.900Z,100123.00
2018-09-07T15:59:56.983Z,100125.00
2018-09-07T16:05:00.235Z,100131.00
2018-09-07T16:10:05.047Z,100140.00
2018-09-07T16:15:08.165Z,100143.00
2018-09-07T16:20:11.519Z,100147.00
2018-09-07T16:25:14.744Z,100141.00
2018-09-07T16:30:17.888Z,100142.00
2018-09-07T16:35:21.066Z,100158.00
2018-09-07T16:40:24.091Z,100155.00
2018-09-07T16:45:27.368Z,100164.00
2018-09-07T16:50:30.525Z,100174.00
2018-09-07T16:55:33.515Z,100180.00
2018-09-07T17:00:36.680Z,100198.00
2018-09-07T17:05:39.663Z,100206.00
2018-09-07T17:10:42.705Z,100206.00
2018-09-07T17:15:46.012Z,100203.00
2018-09-07T17:20:49.184Z,100211.00
2018-09-07T17:25:52.313Z,100214.00
2018-09-07T17:30:55.240Z,100229.00
2018-09-07T17:35:58.442Z,100227.00
2018-09-07T17:41:03.822Z,100226.00
2018-09-07T17:46:06.899Z,100229.00
2018-09-07T17:51:10.216Z,100229.00
2018-09-07T17:56:13.519Z,100249.00
2018-09-07T18:01:16.743Z,100248.00
2018-09-07T18:06:26.154Z,100250.00
2018-09-07T18:11:30.225Z,100261.00
2018-09-07T18:16:33.436Z,100273.00
2018-09-07T18:21:36.745Z,100278.00
2018-09-07T18:26:40.044Z,100285.00
2018-09-07T18:31:43.388Z,100295.00
2018-09-07T18:36:46.798Z,100302.00
2018-09-07T18:41:49.923Z,100309.00
2018-09-07T18:46:53.241Z,100324.00
2018-09-07T18:51:56.410Z,100313.00
2018-09-07T18:56:59.476Z,100336.00
2018-09-07T19:02:04.420Z,100336.00
2018-09-07T19:07:07.674Z,100330.00
2018-09-07T19:12:10.874Z,100346.00
2018-09-07T19:17:14.105Z,100337.00
2018-09-07T19:22:17.524Z,100353.00
2018-09-07T19:27:20.642Z,100370.00
2018-09-07T19:32:24.559Z,100361.00
2018-09-07T19:37:27.862Z,100367.00
2018-09-07T19:42:31.390Z,100373.00
2018-09-07T19:47:34.487Z,100373.00
2018-09-07T19:52:38.101Z,100379.00
2018-09-07T19:57:41.210Z,100377.00
2018-09-07T20:02:44.214Z,100382.00
2018-09-07T20:07:47.396Z,100392.00
2018-09-07T20:12:50.677Z,100392.00
2018-09-07T20:17:53.608Z,100383.00
2018-09-07T20:22:56.684Z,100395.00
2018-09-07T20:27:59.777Z,100388.00
2018-09-07T20:33:05.090Z,100395.00
2018-09-07T20:38:08.195Z,100397.00
2018-09-07T20:43:11.393Z,100401.00
2018-09-07T20:48:14.609Z,100403.00
2018-09-07T20:53:17.775Z,100413.00
2018-09-07T20:58:20.821Z,100422.00
2018-09-07T21:03:24.029Z,100428.00
2018-09-07T21:08:27.253Z,100432.00
2018-09-07T21:13:30.454Z,100441.00
2018-09-07T21:18:33.566Z,100440.00
2018-09-07T21:23:36.689Z,100451.00
2018-09-07T21:28:39.865Z,100439.00
2018-09-07T21:33:43.286Z,100443.00
2018-09-07T21:38:46.335Z,100437.00
2018-09-07T21:43:49.613Z,100447.00
2018-09-07T21:48:52.681Z,100450.00
2018-09-07T21:53:55.628Z,100451.00
2018-09-07T21:58:58.728Z,100453.00
2018-09-07T22:04:03.965Z,100461.00
2018-09-07T22:09:06.974Z,100457.00
2018-09-07T22:14:10.233Z,100459.00
2018-09-07T22:19:13.502Z,100465.00
2018-09-07T22:24:16.517Z,100479.00
2018-09-07T22:29:19.628Z,100482.00
2018-09-07T22:34:22.932Z,100484.00
2018-09-07T22:39:26.343Z,100486.00
2018-09-07T22:44:29.654Z,100492.00
2018-09-07T22:49:32.823Z,100506.00
2018-09-07T22:54:36.409Z,100498.00
2018-09-07T22:59:39.588Z,100509.00
2018-09-07T23:04:42.794Z,100512.00
2018-09-07T23:09:46.102Z,100512.00
2018-09-07T23:14:49.439Z,100519.00
2018-09-07T23:19:52.749Z,100526.00
2018-09-07T23:24:55.812Z,100530.00
2018-09-07T23:29:59.054Z,100530.00
2018-09-07T23:35:03.073Z,100540.00
2018-09-07T23:40:06.593Z,100530.00
2018-09-07T23:45:09.954Z,100534.00
2018-09-07T23:50:13.107Z,100533.00
2018-09-07T23:55:16.331Z,100532.00
